Latest Weather Observations for Adele Island

IDW60801

Issued at 9:03 pm WST Tuesday 28 January 2020 (issued every 10 minutes, with the page automatically refreshed every 10 minutes)

About weather observations | Map of weather stations | Latest weather observations for WA | Other Formats
Station Details ID: 200735 Name: ADELE ISLAND Lat: -15.51 Lon: 123.16 Height: 4.6 m
Data from the previous 72 hours. | See also: Recent months at Adele Island
Date/Time
WST
Temp
°C
App
Temp
°C
Dew
Point
°C
Rel
Hum
%
Delta-T
°C
Wind Press
QNH
hPa
Press
MSL
hPa
Rain since
9am
mm
Dir  Spd
km/h
Gust
km/h
Spd
kts
Gust
kts
28/09:00pm 29.2 - - - - W 26 32 14 17 1007.7 1007.6 -
28/08:30pm 29.3 - - - - W 24 32 13 17 1007.6 1007.5 -
28/08:17pm 29.3 - - - - W 26 - 14 - - 1007.4 -
28/08:00pm 29.3 - - - - W 24 33 13 18 1007.5 1007.4 -
28/07:30pm 29.4 - - - - WSW 24 30 13 16 1007.3 1007.2 -
28/07:17pm 29.4 - - - - WSW 24 - 13 - - 1007.1 -
28/07:00pm 29.4 - - - - W 22 28 12 15 1007.1 1007.0 -
28/06:30pm 29.4 - - - - W 24 32 13 17 1006.8 1006.7 -
28/06:17pm 29.6 - - - - W 24 - 13 - - 1006.6 -
28/06:00pm 29.8 - - - - W 24 30 13 16 1006.6 1006.5 -
28/05:30pm 30.2 - - - - W 22 28 12 15 1006.6 1006.5 -
28/05:17pm 30.3 - - - - W 22 - 12 - - 1006.4 -
28/05:00pm 30.4 - - - - WSW 22 28 12 15 1006.4 1006.3 -
28/04:30pm 30.4 - - - - WSW 24 30 13 16 1006.4 1006.3 -
28/04:17pm 30.9 - - - - W 24 - 13 - - 1006.3 -
28/04:00pm 30.7 - - - - W 22 28 12 15 1006.5 1006.4 -
28/03:30pm 30.7 - - - - WSW 22 28 12 15 1006.7 1006.6 -
28/03:17pm 31.3 - - - - WSW 22 - 12 - - 1006.7 -
28/03:00pm 31.6 - - - - WSW 22 26 12 14 1006.9 1006.8 -
28/02:30pm 30.8 - - - - WSW 22 28 12 15 1007.1 1007.0 -
28/02:17pm 30.9 - - - - WSW 24 - 13 - - 1007.1 -
28/02:00pm 31.2 - - - - SW 24 28 13 15 1007.4 1007.3 -
28/01:30pm 30.9 - - - - WSW 24 28 13 15 1007.6 1007.5 -
28/01:17pm 31.3 - - - - WSW 22 - 12 - - 1007.5 -
28/01:00pm 30.3 - - - - WSW 22 28 12 15 1007.8 1007.7 -
28/12:30pm 30.9 - - - - WSW 24 30 13 16 1008.2 1008.1 -
28/12:17pm 31.3 - - - - WSW 22 - 12 - - 1008.1 -
28/12:00pm 30.8 - - - - WSW 24 28 13 15 1008.6 1008.5 -
28/11:30am 30.8 - - - - WSW 22 28 12 15 1008.7 1008.6 -
28/11:17am 30.4 - - - - WSW 22 - 12 - - 1008.7 -
28/11:00am 30.9 - - - - WSW 20 26 11 14 1009.0 1008.9 -
28/10:30am 30.1 - - - - WSW 22 26 12 14 1009.2 1009.1 -
28/10:17am 31.4 - - - - WSW 20 - 11 - - 1009.2 -
28/10:00am 30.0 - - - - WSW 20 24 11 13 1009.5 1009.4 -
28/09:30am 30.5 - - - - WSW 20 24 11 13 1009.8 1009.7 -
28/09:17am 30.7 - - - - WSW 19 - 10 - - 1009.9 -
28/09:00am 30.0 - - - - WSW 20 24 11 13 1010.0 1009.9 -
28/08:30am 30.0 - - - - WSW 20 26 11 14 1010.0 1009.9 -
28/08:17am 29.7 - - - - W 20 - 11 - - 1009.9 -
28/08:00am 29.7 - - - - W 19 26 10 14 1009.8 1009.7 -
28/07:30am 29.6 - - - - W 20 24 11 13 1009.5 1009.4 -
28/07:17am 29.5 - - - - W 19 - 10 - - 1009.2 -
28/07:00am 29.2 - - - - WSW 22 26 12 14 1009.1 1009.0 -
28/06:30am 28.9 - - - - WSW 20 24 11 13 1008.7 1008.6 -
28/06:17am 28.9 - - - - WSW 20 - 11 - - 1008.5 -
28/06:00am 28.8 - - - - W 22 26 12 14 1008.2 1008.1 -
28/05:30am 28.8 - - - - W 24 30 13 16 1007.7 1007.6 -
28/05:17am 28.7 - - - - W 26 - 14 - - 1007.4 -
28/05:00am 28.7 - - - - W 24 32 13 17 1007.2 1007.1 -
28/04:30am 28.8 - - - - W 24 32 13 17 1006.9 1006.8 -
28/04:17am 28.9 - - - - W 26 - 14 - - 1006.7 -
28/04:00am 29.0 - - - - W 26 32 14 17 1006.9 1006.8 -
28/03:30am 29.0 - - - - W 24 30 13 16 1006.9 1006.8 -
28/03:17am 29.0 - - - - W 24 - 13 - - 1006.9 -
28/03:00am 29.1 - - - - W 22 28 12 15 1007.1 1007.0 -
28/02:30am 29.1 - - - - W 24 30 13 16 1007.3 1007.2 -
28/02:17am 29.2 - - - - W 24 - 13 - - 1007.1 -
28/02:00am 29.2 - - - - W 26 32 14 17 1007.2 1007.1 -
28/01:30am 29.1 - - - - W 24 28 13 15 1007.4 1007.3 -
28/01:17am 29.1 - - - - W 22 - 12 - - 1007.6 -
28/01:00am 29.2 - - - - W 20 26 11 14 1007.9 1007.8 -
28/12:30am 29.1 - - - - WSW 19 22 10 12 1008.4 1008.3 -
28/12:17am 29.1 - - - - WSW 19 - 10 - - 1008.4 -
28/12:00am 29.3 - - - - WSW 19 22 10 12 1008.6 1008.5 -
 
Date/Time
WST
Temp
°C
App
Temp
°C
Dew
Point
°C
Rel
Hum
%
Delta-T
°C
Wind Press
QNH
hPa
Press
MSL
hPa
Rain since
9am
mm
Dir  Spd
km/h
Gust
km/h
Spd
kts
Gust
kts
27/11:30pm 29.3 - - - - WSW 19 24 10 13 1009.1 1009.0 -
27/11:17pm 29.3 - - - - WSW 20 - 11 - - 1009.1 -
27/11:00pm 29.3 - - - - WSW 22 26 12 14 1009.4 1009.3 -
27/10:30pm 29.4 - - - - WSW 20 26 11 14 1009.7 1009.6 -
27/10:17pm 29.3 - - - - WSW 19 - 10 - - 1009.9 -
27/10:00pm 29.3 - - - - SW 19 24 10 13 1010.5 1010.4 -
27/09:30pm 29.3 - - - - SW 17 22 9 12 1010.5 1010.4 -
27/09:17pm 29.3 - - - - SW 19 - 10 - - 1010.6 -
27/09:00pm 29.4 - - - - SW 19 24 10 13 1010.7 1010.6 -
27/08:30pm 29.4 - - - - SW 19 24 10 13 1010.7 1010.6 -
27/08:17pm 29.5 - - - - WSW 20 - 11 - - 1010.4 -
27/08:00pm 29.6 - - - - WSW 20 26 11 14 1010.5 1010.4 -
27/07:30pm 29.5 - - - - WSW 20 24 11 13 1010.1 1010.0 -
27/07:17pm 29.5 - - - - WSW 22 - 12 - - 1009.6 -
27/07:00pm 29.5 - - - - SW 20 28 11 15 1009.2 1009.1 -
27/06:30pm 29.6 - - - - WSW 24 28 13 15 1008.6 1008.5 -
27/06:17pm 29.6 - - - - WSW 20 - 11 - - 1008.4 -
27/06:00pm 29.8 - - - - SW 19 24 10 13 1008.4 1008.3 -
27/05:30pm 30.1 - - - - WSW 22 28 12 15 1007.8 1007.7 -
27/05:17pm 30.1 - - - - WSW 22 - 12 - - 1007.5 -
27/05:00pm 30.1 - - - - WSW 20 26 11 14 1007.7 1007.6 -
27/04:30pm 30.3 - - - - WSW 19 24 10 13 1007.5 1007.4 -
27/04:17pm 30.7 - - - - WSW 22 - 12 - - 1007.3 -
27/04:00pm 30.4 - - - - WSW 20 26 11 14 1007.6 1007.5 -
27/03:30pm 30.4 - - - - WSW 20 24 11 13 1007.8 1007.7 -
27/03:17pm 31.1 - - - - WSW 17 - 9 - - 1007.8 -
27/03:00pm 30.5 - - - - WSW 19 22 10 12 1008.3 1008.2 -
27/02:30pm 31.2 - - - - WSW 17 20 9 11 1008.5 1008.4 -
27/02:17pm 31.0 - - - - W 17 - 9 - - 1008.4 -
27/02:00pm 30.6 - - - - WSW 17 22 9 12 1008.6 1008.5 -
27/01:30pm 30.9 - - - - WSW 15 19 8 10 1008.9 1008.8 -
27/01:17pm 30.9 - - - - WSW 15 - 8 - - 1008.8 -
27/01:00pm 30.5 - - - - WSW 17 20 9 11 1009.0 1008.9 -
27/12:30pm 31.2 - - - - WSW 17 20 9 11 1009.4 1009.3 -
27/12:17pm 30.7 - - - - WSW 17 - 9 - - 1009.4 -
27/12:00pm 30.1 - - - - WSW 15 19 8 10 1009.6 1009.5 -
27/11:30am 30.3 - - - - WSW 15 17 8 9 1009.8 1009.7 -
27/11:17am 30.4 - - - - W 15 - 8 - - 1009.6 -
27/11:00am 30.8 - - - - W 17 20 9 11 1009.8 1009.7 -
27/10:30am 31.5 - - - - WNW 15 20 8 11 1009.9 1009.8 -
27/10:17am 30.7 - - - - W 17 - 9 - - 1010.0 -
27/10:00am 30.1 - - - - WNW 17 20 9 11 1010.1 1010.0 -
27/09:30am 30.1 - - - - W 15 20 8 11 1010.2 1010.1 -
27/09:17am 30.7 - - - - W 15 - 8 - - 1010.1 -
27/09:00am 29.6 - - - - W 15 20 8 11 1010.3 1010.2 -
27/08:30am 30.3 - - - - WNW 15 20 8 11 1010.3 1010.2 -
27/08:17am 30.0 - - - - WNW 13 - 7 - - 1010.1 -
27/08:00am 29.7 - - - - NW 15 17 8 9 1010.1 1010.0 -
27/07:30am 29.5 - - - - WNW 13 19 7 10 1009.8 1009.7 -
27/07:17am 29.7 - - - - W 13 - 7 - - 1009.6 -
27/07:00am 29.3 - - - - WNW 13 17 7 9 1009.5 1009.4 -
27/06:30am 28.8 - - - - W 13 17 7 9 1009.3 1009.2 -
27/06:17am 28.7 - - - - W 15 - 8 - - 1008.9 -
27/06:00am 28.5 - - - - WNW 17 20 9 11 1008.7 1008.6 -
27/05:30am 28.6 - - - - WNW 17 20 9 11 1008.4 1008.3 -
27/05:17am 28.5 - - - - WNW 17 - 9 - - 1008.2 -
27/05:00am 28.8 - - - - WNW 17 20 9 11 1008.3 1008.2 -
27/04:30am 28.7 - - - - W 17 20 9 11 1008.2 1008.1 -
27/04:17am 28.7 - - - - W 17 - 9 - - 1008.2 -
27/04:00am 28.8 - - - - NW 15 17 8 9 1008.1 1008.0 -
27/03:30am 28.7 - - - - W 15 19 8 10 1008.0 1007.9 -
27/03:17am 28.8 - - - - W 15 - 8 - - 1007.8 -
27/03:00am 28.9 - - - - W 15 19 8 10 1007.9 1007.8 -
27/02:30am 29.0 - - - - W 17 20 9 11 1008.2 1008.1 -
27/02:17am 28.9 - - - - W 19 - 10 - - 1008.2 -
27/02:00am 29.0 - - - - WSW 19 22 10 12 1008.3 1008.2 -
27/01:30am 28.9 - - - - WNW 13 15 7 8 1008.3 1008.2 -
27/01:17am 29.0 - - - - W 13 - 7 - - 1008.3 -
27/01:00am 29.1 - - - - WNW 17 19 9 10 1008.5 1008.4 -
27/12:30am 29.0 - - - - WNW 13 15 7 8 1009.0 1008.9 -
27/12:17am 28.9 - - - - WNW 11 - 6 - - 1009.0 -
27/12:00am 29.1 - - - - WNW 11 13 6 7 1009.3 1009.2 -
 
Date/Time
WST
Temp
°C
App
Temp
°C
Dew
Point
°C
Rel
Hum
%
Delta-T
°C
Wind Press
QNH
hPa
Press
MSL
hPa
Rain since
9am
mm
Dir  Spd
km/h
Gust
km/h
Spd
kts
Gust
kts
26/11:30pm 29.2 - - - - WNW 13 15 7 8 1009.5 1009.4 -
26/11:17pm 29.2 - - - - W 13 - 7 - - 1009.5 -
26/11:00pm 29.1 - - - - WNW 15 19 8 10 1009.7 1009.6 -
26/10:30pm 29.1 - - - - W 15 17 8 9 1009.8 1009.7 -
26/10:17pm 29.0 - - - - W 15 - 8 - - 1009.7 -
26/10:00pm 29.1 - - - - W 13 15 7 8 1009.7 1009.6 -
26/09:30pm 29.0 - - - - W 13 17 7 9 1009.3 1009.2 -
26/09:17pm 29.0 - - - - W 15 - 8 - - 1009.0 -
26/09:00pm 29.1 - - - - W 13 17 7 9 1008.8 1008.7 -
26/08:30pm 29.2 - - - - WSW 13 17 7 9 1008.6 1008.5 -
26/08:17pm 29.1 - - - - W 13 - 7 - - 1008.5 -
26/08:00pm 29.1 - - - - WSW 15 17 8 9 1008.5 1008.4 -
26/07:30pm 29.3 - - - - W 15 19 8 10 1008.3 1008.2 -
26/07:17pm 29.2 - - - - W 15 - 8 - - 1008.1 -
26/07:00pm 29.5 - - - - W 17 20 9 11 1007.9 1007.8 -
26/06:30pm 29.4 - - - - WSW 19 22 10 12 1007.4 1007.3 -
26/06:17pm 29.6 - - - - WSW 17 - 9 - - 1007.3 -
26/06:00pm 29.7 - - - - WSW 17 22 9 12 1007.2 1007.1 -
26/05:30pm 30.0 - - - - WSW 19 24 10 13 1007.0 1006.9 -
26/05:17pm 30.1 - - - - WSW 19 - 10 - - 1006.7 -
26/05:00pm 30.2 - - - - WSW 19 24 10 13 1006.8 1006.7 -
26/04:30pm 30.3 - - - - W 20 24 11 13 1006.7 1006.6 -
26/04:17pm 30.6 - - - - W 20 - 11 - - 1006.7 -
26/04:00pm 30.6 - - - - W 20 24 11 13 1006.8 1006.7 -
26/03:30pm 30.9 - - - - WNW 20 26 11 14 1006.9 1006.8 -
26/03:17pm 30.3 - - - - W 20 - 11 - - 1006.8 -
26/03:00pm 31.3 - - - - W 20 24 11 13 1007.1 1007.0 -
26/02:30pm 30.8 - - - - W 19 24 10 13 1007.6 1007.5 -
26/02:17pm 30.9 - - - - W 17 - 9 - - 1007.6 -
26/02:00pm 30.7 - - - - WNW 15 19 8 10 1007.9 1007.8 -
26/01:30pm 31.0 - - - - WNW 17 19 9 10 1008.0 1007.9 -
26/01:17pm 30.6 - - - - WNW 17 - 9 - - 1008.0 -
26/01:00pm 30.5 - - - - WNW 15 19 8 10 1008.4 1008.3 -
26/12:30pm 31.0 - - - - NW 13 17 7 9 1008.9 1008.8 -
26/12:17pm 30.7 - - - - NW 13 - 7 - - 1008.8 -
26/12:00pm 30.4 - - - - NW 13 17 7 9 1009.1 1009.0 -
26/11:30am 30.2 - - - - NW 13 17 7 9 1009.7 1009.6 -
26/11:17am 30.6 - - - - NW 13 - 7 - - 1009.6 -
26/11:00am 30.6 - - - - NW 11 15 6 8 1010.0 1009.9 -
26/10:30am 30.2 - - - - W 13 17 7 9 1010.6 1010.5 -
26/10:17am 29.9 - - - - WSW 13 - 7 - - 1010.6 -
26/10:00am 30.2 - - - - W 11 15 6 8 1011.0 1010.9 -
26/09:30am 30.8 - - - - SSW 15 19 8 10 1011.2 1011.1 -
26/09:17am 30.3 - - - - SSW 15 - 8 - - 1011.0 -
26/09:00am 30.4 - - - - SW 13 17 7 9 1010.8 1010.7 -
26/08:30am 30.2 - - - - W 15 20 8 11 1010.2 1010.1 -
26/08:17am 30.5 - - - - WNW 15 - 8 - - 1010.0 -
26/08:00am 29.7 - - - - WNW 17 20 9 11 1010.1 1010.0 -
26/07:30am 29.6 - - - - WNW 15 19 8 10 1009.7 1009.6 -
26/07:17am 29.7 - - - - WNW 15 - 8 - - 1009.6 -
26/07:00am 29.3 - - - - WNW 17 19 9 10 1009.7 1009.6 -
26/06:30am 29.1 - - - - WNW 15 17 8 9 1009.7 1009.6 -
26/06:17am 28.7 - - - - NW 13 - 7 - - 1009.4 -
26/06:00am 28.7 - - - - NW 13 15 7 8 1009.2 1009.1 -
26/05:30am 28.6 - - - - NW 13 17 7 9 1008.7 1008.6 -
26/05:17am 28.5 - - - - NW 17 - 9 - - 1008.4 -
26/05:00am 28.5 - - - - NW 17 19 9 10 1008.3 1008.2 -
26/04:30am 28.8 - - - - NW 19 22 10 12 1008.3 1008.2 -
26/04:17am 28.9 - - - - NNW 20 - 11 - - 1008.0 -
26/04:00am 29.0 - - - - NNW 17 20 9 11 1008.3 1008.2 -
26/03:30am 28.9 - - - - NNW 19 20 10 11 1008.1 1008.0 -
26/03:17am 29.0 - - - - NW 19 - 10 - - 1008.0 -
26/03:00am 29.1 - - - - NW 20 24 11 13 1007.8 1007.7 -
26/02:30am 29.0 - - - - NW 22 28 12 15 1007.4 1007.3 -
26/02:17am 29.1 - - - - NNW 20 - 11 - - 1007.6 -
26/02:00am 29.2 - - - - NNW 20 24 11 13 1007.9 1007.8 -
26/01:30am 29.2 - - - - NW 19 22 10 12 1008.2 1008.1 -
26/01:17am 29.2 - - - - NW 20 - 11 - - 1008.1 -
26/01:00am 29.2 - - - - NW 19 22 10 12 1008.4 1008.3 -
26/12:30am 29.3 - - - - NW 19 22 10 12 1008.8 1008.7 -
26/12:17am 29.3 - - - - NW 19 - 10 - - 1008.8 -
26/12:00am 29.2 - - - - NW 19 24 10 13 1009.0 1008.9 -
 
Date/Time
WST
Temp
°C
App
Temp
°C
Dew
Point
°C
Rel
Hum
%
Delta-T
°C
Wind Press
QNH
hPa
Press
MSL
hPa
Rain since
9am
mm
Dir  Spd
km/h
Gust
km/h
Spd
kts
Gust
kts
25/11:30pm 29.5 - - - - NW 19 22 10 12 1009.1 1009.0 -
25/11:17pm 29.3 - - - - NW 17 - 9 - - 1009.2 -
25/11:00pm 29.4 - - - - NW 17 20 9 11 1009.5 1009.4 -
25/10:30pm 29.5 - - - - WNW 17 20 9 11 1009.6 1009.5 -
25/10:17pm 29.5 - - - - WNW 17 - 9 - - 1009.4 -
25/10:00pm 29.5 - - - - WNW 19 22 10 12 1009.3 1009.2 -
25/09:30pm 29.3 - - - - W 19 22 10 12 1009.1 1009.0 -
25/09:17pm 29.5 - - - - W 20 - 11 - - 1008.8 -

Other formats

Comma delimited format used in spreadsheet applications
http://www.bom.gov.au/fwo/IDW60801/IDW60801.94210.axf

JavaScript Object Notation format (JSON) in row-major order
http://www.bom.gov.au/fwo/IDW60801/IDW60801.94210.json

Data quality

Most of these data are generated automatically and are frequently updated. Quality checks on data are not normally performed. It is possible for incorrect values to appear. Refer to information at About Latest Weather Observations and please check the disclaimer before using these data.